createdAt,value
2019-06-15T00:01:37.391Z,66.88
2019-06-15T00:04:04.030Z,66.53
2019-06-15T00:06:30.784Z,66.85
2019-06-15T00:08:57.397Z,67.08
2019-06-15T00:11:24.176Z,67.21
2019-06-15T00:13:50.753Z,67.57
2019-06-15T00:16:17.311Z,67.67
2019-06-15T00:18:44.325Z,68.03
2019-06-15T00:21:10.878Z,68.33
2019-06-15T00:23:37.460Z,68.43
2019-06-15T00:26:04.075Z,68.70
2019-06-15T00:28:30.856Z,68.67
2019-06-15T00:30:57.463Z,68.80
2019-06-15T00:33:23.925Z,67.75
2019-06-15T00:35:50.458Z,68.39
2019-06-15T00:38:16.957Z,68.85
2019-06-15T00:40:43.501Z,69.33
2019-06-15T00:43:10.332Z,69.99
2019-06-15T00:45:36.881Z,71.28
2019-06-15T00:48:03.356Z,71.82
2019-06-15T00:50:29.925Z,71.82
2019-06-15T00:52:56.471Z,71.56
2019-06-15T00:55:23.148Z,72.03
2019-06-15T00:57:49.919Z,72.00
2019-06-15T01:00:17.220Z,72.00
2019-06-15T01:02:43.770Z,71.74
2019-06-15T01:05:13.386Z,71.74
2019-06-15T01:07:40.679Z,72.10
2019-06-15T01:10:07.632Z,73.00
2019-06-15T01:12:36.806Z,73.44
2019-06-15T01:15:04.378Z,74.38
2019-06-15T01:17:30.962Z,75.94
2019-06-15T01:19:57.473Z,77.21
2019-06-15T01:22:23.974Z,77.54
2019-06-15T01:25:04.706Z,77.92
2019-06-15T01:27:19.017Z,78.32
2019-06-15T01:29:47.807Z,78.44
2019-06-15T01:32:14.682Z,78.07
2019-06-15T01:34:41.220Z,78.16
2019-06-15T01:37:07.833Z,77.69
2019-06-15T01:39:36.337Z,77.33
2019-06-15T01:42:03.384Z,77.39
2019-06-15T01:44:29.948Z,77.29
2019-06-15T01:46:56.507Z,76.64
2019-06-15T01:49:23.353Z,76.86
2019-06-15T01:51:49.892Z,76.96
2019-06-15T01:54:21.434Z,78.10
2019-06-15T01:56:47.922Z,78.62
2019-06-15T01:59:14.576Z,78.89
2019-06-15T02:01:41.433Z,79.06
2019-06-15T02:04:07.959Z,78.68
2019-06-15T02:06:34.925Z,77.88
2019-06-15T02:09:01.578Z,77.43
2019-06-15T02:11:28.131Z,76.95
2019-06-15T02:13:54.642Z,77.22
2019-06-15T02:16:21.366Z,77.57
2019-06-15T02:18:47.870Z,77.47
2019-06-15T02:21:14.443Z,78.41
2019-06-15T02:23:41.034Z,79.49
2019-06-15T02:26:07.620Z,79.97
2019-06-15T02:28:34.274Z,80.01
2019-06-15T02:31:01.040Z,80.06
2019-06-15T02:33:27.719Z,80.09
2019-06-15T02:35:54.597Z,80.06
2019-06-15T02:38:21.230Z,79.98
2019-06-15T02:40:47.727Z,79.80
2019-06-15T02:43:14.376Z,80.75
2019-06-15T02:45:42.200Z,81.06
2019-06-15T02:48:09.075Z,81.45
2019-06-15T02:50:35.934Z,81.43
2019-06-15T02:53:02.910Z,81.07
2019-06-15T02:55:29.411Z,81.30
2019-06-15T02:57:57.190Z,81.16
2019-06-15T03:00:38.045Z,81.71
2019-06-15T03:03:05.098Z,81.57
2019-06-15T03:05:31.727Z,81.28
2019-06-15T03:07:58.542Z,81.16
2019-06-15T03:10:26.290Z,81.21
2019-06-15T03:12:52.904Z,81.41
2019-06-15T03:15:37.812Z,82.04
2019-06-15T03:18:04.409Z,82.29
2019-06-15T03:20:30.923Z,82.21
2019-06-15T03:22:57.899Z,81.76
2019-06-15T03:25:24.812Z,81.36
2019-06-15T03:27:51.442Z,81.04
2019-06-15T03:30:22.290Z,80.48
2019-06-15T03:32:49.131Z,79.98
2019-06-15T03:35:15.763Z,79.40
2019-06-15T03:37:42.337Z,79.32
2019-06-15T03:40:09.986Z,78.95
2019-06-15T03:42:36.512Z,78.61
2019-06-15T03:45:03.565Z,77.94
2019-06-15T03:47:30.353Z,76.92
2019-06-15T03:49:56.928Z,75.64
2019-06-15T03:52:23.502Z,75.64
2019-06-15T03:54:50.023Z,75.15
2019-06-15T03:57:16.973Z,74.66
2019-06-15T03:59:43.591Z,74.30
2019-06-15T04:02:10.119Z,74.38
2019-06-15T04:04:36.651Z,74.36
2019-06-15T04:07:03.448Z,73.98
2019-06-15T04:09:30.033Z,74.20
2019-06-15T04:11:58.913Z,74.19
2019-06-15T04:14:25.768Z,74.59
2019-06-15T04:16:52.653Z,75.04
2019-06-15T04:19:19.211Z,74.66
2019-06-15T04:21:46.316Z,74.66
2019-06-15T04:24:13.256Z,74.30
2019-06-15T04:26:39.824Z,73.96
2019-06-15T04:29:07.598Z,74.30
2019-06-15T04:31:34.246Z,74.38
2019-06-15T04:34:01.375Z,74.73
2019-06-15T04:36:27.920Z,74.97
2019-06-15T04:38:54.463Z,75.48
2019-06-15T04:41:21.773Z,74.88
2019-06-15T04:43:50.437Z,73.81
2019-06-15T04:46:16.968Z,73.60
2019-06-15T04:48:43.588Z,73.31
2019-06-15T04:51:10.127Z,73.86
2019-06-15T04:53:36.775Z,74.71
2019-06-15T04:56:03.375Z,74.32
2019-06-15T04:58:29.937Z,73.90
2019-06-15T05:00:56.587Z,73.14
2019-06-15T05:03:23.113Z,72.90
2019-06-15T05:05:50.055Z,72.84
2019-06-15T05:08:16.531Z,71.38
2019-06-15T05:10:59.919Z,71.37
2019-06-15T05:13:26.894Z,70.29
2019-06-15T05:15:53.903Z,70.23
2019-06-15T05:18:20.453Z,69.31
2019-06-15T05:20:46.989Z,68.89
2019-06-15T05:23:13.530Z,69.26
2019-06-15T05:25:40.015Z,69.99
2019-06-15T05:28:07.143Z,71.43
2019-06-15T05:30:33.715Z,71.92
2019-06-15T05:33:00.497Z,72.66
2019-06-15T05:35:27.038Z,72.29
2019-06-15T05:37:54.252Z,69.63
2019-06-15T05:40:22.967Z,66.75
2019-06-15T05:42:49.498Z,63.24
2019-06-15T05:45:16.158Z,62.37
2019-06-15T05:47:42.733Z,61.63
2019-06-15T05:50:09.313Z,61.02
2019-06-15T05:52:36.188Z,59.91
2019-06-15T05:55:04.161Z,60.21
2019-06-15T05:57:30.828Z,61.37
2019-06-15T05:59:57.578Z,61.82
2019-06-15T06:02:24.922Z,62.16
2019-06-15T06:04:51.822Z,61.44
2019-06-15T06:07:18.640Z,61.41
2019-06-15T06:09:46.381Z,61.34
2019-06-15T06:12:13.016Z,61.06
2019-06-15T06:14:39.601Z,60.66
2019-06-15T06:17:06.464Z,60.17
2019-06-15T06:19:33.001Z,59.81
2019-06-15T06:21:59.522Z,59.19
2019-06-15T06:24:26.030Z,59.40
2019-06-15T06:26:52.834Z,58.23
2019-06-15T06:29:19.314Z,57.95
2019-06-15T06:31:46.212Z,56.90
2019-06-15T06:34:12.751Z,56.22
2019-06-15T06:36:39.292Z,56.41
2019-06-15T06:39:06.241Z,57.41
2019-06-15T06:41:36.136Z,58.05
2019-06-15T06:44:02.963Z,57.69
2019-06-15T06:46:31.110Z,56.94
2019-06-15T06:48:57.671Z,56.39
2019-06-15T06:51:24.156Z,56.48
2019-06-15T06:53:50.670Z,55.12
2019-06-15T06:56:17.267Z,52.55
2019-06-15T06:58:43.810Z,50.29
2019-06-15T07:01:10.882Z,47.70
2019-06-15T07:03:37.464Z,44.74
2019-06-15T07:06:04.487Z,43.67
2019-06-15T07:08:31.107Z,44.85
2019-06-15T07:10:57.628Z,42.64
2019-06-15T07:13:24.227Z,44.10
2019-06-15T07:15:50.831Z,42.34
2019-06-15T07:18:18.246Z,42.46
2019-06-15T07:20:45.859Z,42.37
2019-06-15T07:23:12.770Z,41.67
2019-06-15T07:25:39.278Z,41.97
2019-06-15T07:28:08.233Z,41.69
2019-06-15T07:30:34.444Z,40.94
2019-06-15T07:33:01.488Z,40.09
2019-06-15T07:35:28.022Z,39.25
2019-06-15T07:37:54.886Z,38.93
2019-06-15T07:40:21.422Z,38.44
2019-06-15T07:42:47.995Z,37.86
2019-06-15T07:45:14.721Z,36.90
2019-06-15T07:47:41.873Z,34.67
2019-06-15T07:50:09.762Z,34.18
2019-06-15T07:52:36.290Z,34.95
2019-06-15T07:55:03.510Z,35.11
2019-06-15T07:57:30.161Z,35.41
2019-06-15T07:59:56.803Z,34.08
2019-06-15T08:02:27.212Z,34.45
2019-06-15T08:04:53.773Z,34.42
2019-06-15T08:07:20.292Z,34.01
2019-06-15T08:09:46.903Z,34.02
2019-06-15T08:12:13.443Z,33.91
2019-06-15T08:14:40.187Z,33.62
2019-06-15T08:17:06.741Z,33.85
2019-06-15T08:19:33.474Z,33.88
2019-06-15T08:22:00.364Z,34.37
2019-06-15T08:24:27.141Z,33.55
2019-06-15T08:26:56.261Z,34.01
2019-06-15T08:29:23.273Z,32.85
2019-06-15T08:31:50.974Z,33.23
2019-06-15T08:34:17.616Z,34.10
2019-06-15T08:36:47.462Z,33.82
2019-06-15T08:39:13.991Z,34.14
2019-06-15T08:41:40.984Z,35.24
2019-06-15T08:44:07.690Z,36.74
2019-06-15T08:46:35.960Z,37.34
2019-06-15T08:49:02.651Z,38.73
2019-06-15T08:51:29.321Z,39.72
2019-06-15T08:53:56.080Z,40.39
2019-06-15T08:56:23.854Z,40.93
2019-06-15T08:58:55.562Z,40.10
2019-06-15T09:01:18.790Z,40.45
2019-06-15T09:03:45.439Z,40.96
2019-06-15T09:06:11.997Z,40.75
2019-06-15T09:08:38.599Z,40.85
2019-06-15T09:11:05.377Z,41.29
2019-06-15T09:15:59.928Z,41.18
2019-06-15T09:18:26.706Z,41.08
2019-06-15T09:20:53.198Z,40.57
2019-06-15T09:23:19.971Z,41.09
2019-06-15T09:25:46.662Z,41.83
2019-06-15T09:28:13.376Z,41.51
2019-06-15T09:30:40.315Z,41.56
2019-06-15T09:33:07.093Z,41.43
2019-06-15T09:35:35.786Z,40.93
2019-06-15T09:38:02.379Z,40.29
2019-06-15T09:40:29.051Z,39.86
2019-06-15T09:42:56.657Z,39.44
2019-06-15T09:45:23.156Z,40.22
2019-06-15T09:47:50.149Z,40.37
2019-06-15T09:50:18.713Z,40.04
2019-06-15T09:52:46.308Z,38.54
2019-06-15T09:55:12.969Z,38.89
2019-06-15T09:57:39.617Z,37.94
2019-06-15T10:00:06.624Z,37.20
2019-06-15T10:02:33.348Z,37.44
2019-06-15T10:04:59.938Z,36.59
2019-06-15T10:07:26.486Z,35.52
2019-06-15T10:09:53.086Z,34.94
2019-06-15T10:12:20.581Z,34.08
2019-06-15T10:14:47.235Z,34.19
2019-06-15T10:17:13.916Z,33.84
2019-06-15T10:19:40.780Z,34.12
2019-06-15T10:22:07.516Z,33.55
2019-06-15T10:24:34.163Z,32.96
2019-06-15T10:27:00.904Z,32.02
2019-06-15T10:29:41.218Z,31.43
2019-06-15T10:31:57.023Z,31.41
2019-06-15T10:34:24.073Z,31.90
2019-06-15T10:36:50.821Z,31.63
2019-06-15T10:39:17.569Z,32.54
2019-06-15T10:41:44.166Z,34.02
2019-06-15T10:44:10.858Z,35.88
2019-06-15T10:46:48.011Z,36.29
2019-06-15T10:49:14.663Z,35.80
2019-06-15T10:51:45.189Z,35.26
2019-06-15T10:54:11.858Z,34.94
2019-06-15T10:56:47.962Z,34.05
2019-06-15T10:59:17.343Z,34.10
2019-06-15T11:01:43.993Z,34.12
2019-06-15T11:04:10.635Z,33.85
2019-06-15T11:06:43.696Z,33.36
2019-06-15T11:09:10.307Z,33.05
2019-06-15T11:11:37.122Z,33.65
2019-06-15T11:14:06.078Z,33.71
2019-06-15T11:16:32.737Z,33.61
2019-06-15T11:19:00.557Z,33.07
2019-06-15T11:21:27.217Z,32.95
2019-06-15T11:23:54.070Z,34.26
2019-06-15T11:26:20.654Z,32.98
2019-06-15T11:28:47.285Z,33.50
2019-06-15T11:31:16.561Z,31.89
2019-06-15T11:33:45.422Z,32.50
2019-06-15T11:36:12.261Z,32.83
2019-06-15T11:38:39.847Z,33.41
2019-06-15T11:41:09.523Z,33.80
2019-06-15T11:43:40.129Z,34.21
2019-06-15T11:46:07.172Z,34.39
2019-06-15T11:48:33.775Z,33.64
2019-06-15T11:51:00.639Z,34.15
2019-06-15T11:53:27.487Z,34.30
2019-06-15T11:55:54.417Z,35.01
2019-06-15T11:58:21.828Z,34.64
2019-06-15T12:00:48.344Z,35.37
2019-06-15T12:03:16.286Z,36.72
2019-06-15T12:05:43.083Z,36.92
2019-06-15T12:08:13.835Z,36.43
2019-06-15T12:10:40.937Z,35.15
2019-06-15T12:13:08.552Z,33.54
2019-06-15T12:15:35.101Z,33.73
2019-06-15T12:18:01.713Z,33.77
2019-06-15T12:20:28.224Z,32.94
2019-06-15T12:22:54.884Z,32.78
2019-06-15T12:25:21.510Z,34.28
2019-06-15T12:27:50.682Z,35.03
2019-06-15T12:30:24.445Z,34.87
2019-06-15T12:32:51.037Z,34.97
2019-06-15T12:35:18.029Z,34.00
2019-06-15T12:37:48.579Z,32.85
2019-06-15T12:40:15.490Z,32.28
2019-06-15T12:42:42.624Z,31.88
2019-06-15T12:45:10.298Z,31.52
2019-06-15T12:47:36.902Z,32.26
2019-06-15T12:50:04.627Z,31.99
2019-06-15T12:52:33.504Z,31.54
2019-06-15T12:55:00.104Z,31.68
2019-06-15T12:57:26.650Z,32.62
2019-06-15T12:59:53.154Z,33.10
2019-06-15T13:02:19.834Z,32.92
2019-06-15T13:04:46.406Z,32.23
2019-06-15T13:07:13.022Z,31.85
2019-06-15T13:09:39.725Z,30.92
2019-06-15T13:12:06.523Z,32.04
2019-06-15T13:14:33.292Z,32.63
2019-06-15T13:16:59.803Z,32.62
2019-06-15T13:19:26.590Z,33.68
2019-06-15T13:21:53.211Z,34.13
2019-06-15T13:24:19.888Z,34.18
2019-06-15T13:26:46.386Z,35.62
2019-06-15T13:29:13.236Z,36.49
2019-06-15T13:31:39.845Z,37.22
2019-06-15T13:34:06.362Z,37.81
2019-06-15T13:36:32.943Z,37.18
2019-06-15T13:39:00.873Z,36.92
2019-06-15T13:41:27.381Z,36.33
2019-06-15T13:43:54.183Z,36.00
2019-06-15T13:46:21.236Z,35.95
2019-06-15T13:48:47.948Z,36.74
2019-06-15T13:51:14.459Z,36.34
2019-06-15T13:53:41.242Z,36.38
2019-06-15T13:56:07.941Z,36.79
2019-06-15T13:58:34.545Z,37.70
2019-06-15T14:01:01.396Z,38.15
2019-06-15T14:03:28.030Z,39.05
2019-06-15T14:05:54.621Z,39.18
2019-06-15T14:08:21.298Z,38.55
2019-06-15T14:10:47.889Z,36.13
2019-06-15T14:13:14.603Z,35.62
2019-06-15T14:15:41.146Z,35.09
2019-06-15T14:18:08.448Z,34.88
2019-06-15T14:20:34.984Z,35.08
2019-06-15T14:23:01.527Z,35.38
2019-06-15T14:25:30.717Z,35.08
2019-06-15T14:27:57.670Z,35.27
2019-06-15T14:30:24.295Z,35.91
2019-06-15T14:32:50.963Z,36.13
2019-06-15T14:35:17.612Z,35.64
2019-06-15T14:40:24.642Z,36.29
2019-06-15T14:42:51.243Z,36.32
2019-06-15T14:45:17.864Z,36.77
2019-06-15T14:47:44.690Z,36.71
2019-06-15T14:50:11.302Z,36.15
2019-06-15T14:52:38.244Z,36.81
2019-06-15T14:55:07.262Z,37.11
2019-06-15T14:57:36.131Z,36.70
2019-06-15T15:00:05.919Z,35.84
2019-06-15T15:02:36.973Z,35.14
2019-06-15T15:05:03.605Z,36.14
2019-06-15T15:07:30.530Z,36.18
2019-06-15T15:09:57.315Z,36.18
2019-06-15T15:12:26.354Z,36.83
2019-06-15T15:14:56.574Z,36.75
2019-06-15T15:17:23.362Z,37.66
2019-06-15T15:19:49.871Z,37.67
2019-06-15T15:22:16.602Z,38.03
2019-06-15T15:24:43.475Z,38.25
2019-06-15T15:27:10.023Z,38.04
2019-06-15T15:29:36.594Z,37.85
2019-06-15T15:32:03.198Z,37.94
2019-06-15T15:34:29.954Z,38.29
2019-06-15T15:36:56.945Z,37.68
2019-06-15T15:39:23.536Z,38.17
2019-06-15T15:41:50.122Z,37.29
2019-06-15T15:44:16.895Z,36.89
2019-06-15T15:46:46.211Z,37.86
2019-06-15T15:49:13.134Z,38.91
2019-06-15T15:51:39.940Z,38.53
2019-06-15T15:54:07.302Z,39.85
2019-06-15T15:56:36.749Z,39.44
2019-06-15T15:59:03.537Z,39.28
2019-06-15T16:01:36.988Z,39.83
2019-06-15T16:04:03.389Z,40.37
2019-06-15T16:06:30.443Z,40.75
2019-06-15T16:08:57.081Z,40.14
2019-06-15T16:11:23.664Z,39.48
2019-06-15T16:13:56.336Z,40.14
2019-06-15T16:16:22.202Z,40.56
2019-06-15T16:18:51.905Z,40.83
2019-06-15T16:21:18.471Z,41.16
2019-06-15T16:23:46.262Z,41.95
2019-06-15T16:26:16.583Z,42.76
2019-06-15T16:28:45.940Z,43.16
2019-06-15T16:31:13.815Z,41.57
2019-06-15T16:33:41.796Z,41.80
2019-06-15T16:36:08.680Z,42.45
2019-06-15T16:38:36.552Z,42.39
2019-06-15T16:41:03.383Z,38.97
2019-06-15T16:43:30.197Z,39.16
2019-06-15T16:45:57.185Z,39.14
2019-06-15T16:48:25.961Z,39.64
2019-06-15T16:50:54.442Z,40.39
2019-06-15T16:53:21.258Z,40.96
2019-06-15T16:55:48.653Z,40.99
2019-06-15T16:58:16.150Z,41.19
2019-06-15T17:00:42.982Z,40.93
2019-06-15T17:03:21.043Z,41.00
2019-06-15T17:05:37.924Z,41.33
2019-06-15T17:08:07.007Z,41.57
2019-06-15T17:10:36.765Z,42.06
2019-06-15T17:13:03.515Z,42.01
2019-06-15T17:15:30.065Z,42.74
2019-06-15T17:17:56.606Z,43.05
2019-06-15T17:20:27.536Z,42.99
2019-06-15T17:22:56.235Z,42.91
2019-06-15T17:25:22.587Z,43.44
2019-06-15T17:27:49.233Z,43.63
2019-06-15T17:30:17.234Z,43.09
2019-06-15T17:32:44.187Z,42.91
2019-06-15T17:35:10.753Z,43.50
2019-06-15T17:37:37.253Z,43.74
2019-06-15T17:40:04.521Z,43.46
2019-06-15T17:42:31.051Z,43.32
2019-06-15T17:44:57.660Z,44.01
2019-06-15T17:47:26.229Z,43.65
2019-06-15T17:49:52.591Z,43.46
2019-06-15T17:52:19.089Z,43.51
2019-06-15T17:54:46.680Z,43.90
2019-06-15T17:57:13.452Z,43.73
2019-06-15T17:59:40.302Z,43.68
2019-06-15T18:02:06.917Z,43.50
2019-06-15T18:04:37.111Z,43.69
2019-06-15T18:07:02.683Z,43.79
2019-06-15T18:09:29.515Z,43.04
2019-06-15T18:11:58.673Z,43.24
2019-06-15T18:14:26.378Z,43.49
2019-06-15T18:16:59.046Z,43.72
2019-06-15T18:19:26.146Z,43.08
2019-06-15T18:21:52.775Z,43.05
2019-06-15T18:24:19.684Z,43.67
2019-06-15T18:26:50.379Z,43.44
2019-06-15T18:29:26.421Z,43.69
2019-06-15T18:31:53.110Z,43.91
2019-06-15T18:34:21.502Z,44.40
2019-06-15T18:36:47.990Z,44.17
2019-06-15T18:39:16.542Z,44.37
2019-06-15T18:41:43.151Z,44.43
2019-06-15T18:44:09.732Z,44.35
2019-06-15T18:46:36.849Z,43.86
2019-06-15T18:49:06.519Z,43.73
2019-06-15T18:51:32.241Z,43.73
2019-06-15T18:53:58.753Z,44.28
2019-06-15T18:56:27.098Z,44.20
2019-06-15T18:58:56.158Z,44.51
2019-06-15T19:01:22.963Z,44.70
2019-06-15T19:03:49.530Z,45.19
2019-06-15T19:06:16.898Z,45.63
2019-06-15T19:08:46.630Z,46.23
2019-06-15T19:11:12.780Z,47.42
2019-06-15T19:13:39.398Z,47.88
2019-06-15T19:16:06.950Z,48.44
2019-06-15T19:18:33.817Z,48.71
2019-06-15T19:21:00.766Z,49.24
2019-06-15T19:23:27.799Z,49.50
2019-06-15T19:25:57.076Z,49.75
2019-06-15T19:28:23.292Z,50.37
2019-06-15T19:30:49.943Z,50.59
2019-06-15T19:33:16.532Z,50.82
2019-06-15T19:35:43.157Z,51.55
2019-06-15T19:38:11.719Z,51.90
2019-06-15T19:40:38.492Z,52.19
2019-06-15T19:43:06.548Z,52.61
2019-06-15T19:45:42.378Z,52.98
2019-06-15T19:48:08.873Z,53.21
2019-06-15T19:50:36.250Z,53.30
2019-06-15T19:53:03.381Z,53.65
2019-06-15T19:55:29.869Z,54.07
2019-06-15T19:57:56.926Z,54.47
2019-06-15T20:00:23.673Z,54.56
2019-06-15T20:02:52.398Z,54.93
2019-06-15T20:05:23.091Z,55.17
2019-06-15T20:07:49.644Z,55.40
2019-06-15T20:10:16.637Z,55.56
2019-06-15T20:12:43.616Z,55.72
2019-06-15T20:15:11.326Z,55.82
2019-06-15T20:17:37.789Z,56.11
2019-06-15T20:20:06.959Z,56.42
2019-06-15T20:22:37.238Z,56.70
2019-06-15T20:25:06.462Z,56.91
2019-06-15T20:27:34.106Z,57.16
2019-06-15T20:30:00.617Z,57.64
2019-06-15T20:32:27.525Z,57.73
2019-06-15T20:34:54.076Z,57.96
2019-06-15T20:37:20.693Z,58.31
2019-06-15T20:39:47.144Z,59.17
2019-06-15T20:42:16.474Z,60.50
2019-06-15T20:44:43.121Z,60.83
2019-06-15T20:47:09.720Z,61.34
2019-06-15T20:49:36.951Z,62.45
2019-06-15T20:52:03.675Z,62.10
2019-06-15T20:54:30.335Z,62.16
2019-06-15T20:56:57.065Z,62.07
2019-06-15T20:59:26.074Z,62.57
2019-06-15T21:01:52.955Z,62.58
2019-06-15T21:04:19.462Z,62.78
2019-06-15T21:06:46.283Z,63.04
2019-06-15T21:09:16.390Z,63.44
2019-06-15T21:11:43.356Z,63.89
2019-06-15T21:14:15.864Z,64.59
2019-06-15T21:16:46.315Z,65.21
2019-06-15T21:19:13.951Z,65.76
2019-06-15T21:21:40.480Z,66.01
2019-06-15T21:24:08.005Z,65.81
2019-06-15T21:26:34.628Z,65.86
2019-06-15T21:29:01.203Z,66.38
2019-06-15T21:31:27.885Z,66.91
2019-06-15T21:33:56.118Z,67.03
2019-06-15T21:36:22.668Z,67.73
2019-06-15T21:38:51.469Z,68.52
2019-06-15T21:41:18.279Z,69.20
2019-06-15T21:43:47.011Z,69.70
2019-06-15T21:46:13.615Z,70.14
2019-06-15T21:48:40.158Z,70.12
2019-06-15T21:51:07.821Z,69.87
2019-06-15T21:53:36.165Z,69.84
2019-06-15T21:56:03.113Z,69.42
2019-06-15T21:58:29.969Z,69.28
2019-06-15T22:01:11.805Z,68.78
2019-06-15T22:03:38.414Z,69.55
2019-06-15T22:06:06.405Z,70.15
2019-06-15T22:08:33.284Z,70.45
2019-06-15T22:11:01.925Z,71.65
2019-06-15T22:13:28.404Z,71.42
2019-06-15T22:15:56.207Z,71.62
2019-06-15T22:18:22.684Z,71.74
2019-06-15T22:20:49.272Z,72.08
2019-06-15T22:23:16.355Z,72.52
2019-06-15T22:25:43.290Z,72.72
2019-06-15T22:28:09.797Z,73.13
2019-06-15T22:30:36.717Z,73.76
2019-06-15T22:33:03.535Z,74.58
2019-06-15T22:35:30.214Z,75.18
2019-06-15T22:37:56.680Z,75.58
2019-06-15T22:40:23.216Z,75.86
2019-06-15T22:42:49.702Z,75.71
2019-06-15T22:45:29.680Z,75.48
2019-06-15T22:47:56.134Z,75.57
2019-06-15T22:50:22.671Z,75.61
2019-06-15T22:52:49.180Z,75.40
2019-06-15T22:55:16.553Z,75.53
2019-06-15T22:57:43.193Z,76.24
2019-06-15T23:00:09.864Z,76.87
2019-06-15T23:02:36.442Z,77.32
2019-06-15T23:05:06.296Z,76.61
2019-06-15T23:07:32.000Z,76.36
2019-06-15T23:09:58.505Z,76.49
2019-06-15T23:12:24.980Z,76.45
2019-06-15T23:14:52.599Z,76.56
2019-06-15T23:17:19.359Z,76.56
2019-06-15T23:19:46.181Z,77.16
2019-06-15T23:22:12.789Z,77.45
2019-06-15T23:24:39.650Z,78.81
2019-06-15T23:27:06.924Z,78.51
2019-06-15T23:29:33.585Z,79.32
2019-06-15T23:32:01.620Z,80.02
2019-06-15T23:34:28.471Z,80.04
2019-06-15T23:37:00.427Z,80.24
2019-06-15T23:39:27.030Z,80.21
2019-06-15T23:41:56.229Z,80.09
2019-06-15T23:44:27.013Z,79.85
2019-06-15T23:46:53.720Z,79.57
2019-06-15T23:49:20.202Z,79.84
2019-06-15T23:51:46.893Z,79.50
2019-06-15T23:54:13.420Z,79.62
2019-06-15T23:56:40.962Z,80.27
2019-06-15T23:59:07.533Z,80.22
